Time;durP1;ratioP1;P1;durP2;ratioP2;P2;SDS_P1;SDS_P2;PMS_P1;PMS_P2;Temp;Humidity;BMP_temperature;BMP_pressure;BME280_temperature;BME280_humidity;BME280_pressure;Samples;Min_cycle;Max_cycle;Signal;HPM_P1;HPM_P2
2024/03/15 00:01:40;;;;;;;8.27;7.47;;;;;;;12.23;100.00;100732.09;7732674;22;20206;-70
2024/03/15 00:05:02;;;;;;;8.97;6.97;;;;;;;12.24;100.00;100730.25;7738068;22;20648;-70
2024/03/15 00:08:23;;;;;;;7.17;6.47;;;;;;;12.17;100.00;100724.59;7724295;22;20226;-70
2024/03/15 00:11:44;;;;;;;8.27;7.30;;;;;;;12.20;100.00;100718.91;7740994;22;20972;-70
2024/03/15 00:15:08;;;;;;;7.33;6.63;;;;;;;12.25;100.00;100724.69;7735375;22;20210;-71
2024/03/15 00:18:31;;;;;;;8.43;6.87;;;;;;;12.09;100.00;100724.50;7756069;22;20219;-70
2024/03/15 00:21:54;;;;;;;6.87;6.30;;;;;;;12.01;100.00;100721.69;7725469;22;20210;-71
2024/03/15 00:25:18;;;;;;;8.53;6.43;;;;;;;12.12;100.00;100726.06;7726765;22;20214;-70
2024/03/15 00:28:39;;;;;;;7.90;6.40;;;;;;;12.14;100.00;100727.59;7739703;22;20600;-70
2024/03/15 00:32:00;;;;;;;7.17;6.47;;;;;;;12.07;100.00;100722.94;7723982;22;20222;-70
2024/03/15 00:35:21;;;;;;;8.00;7.20;;;;;;;11.92;100.00;100717.19;7729607;22;20793;-71
2024/03/15 00:38:43;;;;;;;8.73;7.53;;;;;;;11.89;100.00;100717.50;7732232;22;20210;-70
2024/03/15 00:42:04;;;;;;;8.27;6.73;;;;;;;11.94;100.00;100712.47;7730324;22;20224;-71
2024/03/15 00:45:25;;;;;;;7.13;6.43;;;;;;;11.88;100.00;100711.22;7730784;22;20635;-69
2024/03/15 00:48:49;;;;;;;9.30;6.47;;;;;;;11.83;100.00;100700.00;7735416;22;20210;-71
2024/03/15 00:52:10;;;;;;;7.60;6.90;;;;;;;11.95;100.00;100700.69;7728749;22;20219;-72
2024/03/15 00:55:31;;;;;;;7.73;6.93;;;;;;;11.92;100.00;100700.97;7732430;22;20277;-69
2024/03/15 00:58:54;;;;;;;6.87;6.27;;;;;;;11.88;100.00;100686.91;7740480;22;20214;-71
2024/03/15 01:02:15;;;;;;;7.63;6.83;;;;;;;11.81;100.00;100687.66;7725036;22;20207;-70
2024/03/15 01:05:36;;;;;;;9.40;7.77;;;;;;;11.83;100.00;100689.19;7728004;22;20214;-70
2024/03/15 01:08:57;;;;;;;7.37;6.70;;;;;;;11.86;100.00;100688.06;7713924;22;20857;-71
2024/03/15 01:12:18;;;;;;;9.80;8.80;;;;;;;11.94;100.00;100671.94;7728441;22;20211;-71
2024/03/15 01:15:39;;;;;;;10.13;7.73;;;;;;;12.03;100.00;100673.75;7731114;22;20584;-71
2024/03/15 01:19:01;;;;;;;8.53;7.33;;;;;;;11.80;100.00;100673.31;7735344;22;20574;-71
2024/03/15 01:22:22;;;;;;;8.00;7.30;;;;;;;11.77;100.00;100679.00;7732931;22;20321;-71
2024/03/15 01:25:43;;;;;;;7.83;7.13;;;;;;;11.95;100.00;100679.06;7730182;22;20215;-71
2024/03/15 01:29:04;;;;;;;7.33;6.63;;;;;;;11.94;100.00;100672.81;7701315;22;20206;-71
2024/03/15 01:32:25;;;;;;;8.30;7.17;;;;;;;11.74;100.00;100670.34;7711219;22;20524;-72
2024/03/15 01:35:46;;;;;;;9.57;6.90;;;;;;;11.80;100.00;100669.75;7725656;22;20880;-72
2024/03/15 01:39:07;;;;;;;8.93;7.93;;;;;;;11.88;100.00;100673.41;7735450;22;20689;-71
2024/03/15 01:42:28;;;;;;;6.87;6.27;;;;;;;11.87;100.00;100670.84;7711317;22;20218;-71
2024/03/15 01:45:50;;;;;;;8.27;6.93;;;;;;;11.66;100.00;100662.13;7725238;22;20214;-72
2024/03/15 01:49:11;;;;;;;7.60;6.43;;;;;;;11.64;100.00;100664.13;7735299;22;20198;-71
2024/03/15 01:52:35;;;;;;;7.20;6.50;;;;;;;11.59;100.00;100661.00;7727766;22;20313;-71
2024/03/15 01:55:56;;;;;;;11.97;7.43;;;;;;;11.61;100.00;100654.44;7730363;22;20206;-72
2024/03/15 01:59:17;;;;;;;7.30;6.60;;;;;;;11.52;100.00;100646.38;7735964;22;20207;-71
2024/03/15 02:02:38;;;;;;;8.17;7.40;;;;;;;11.55;100.00;100646.94;7744542;22;20429;-72
2024/03/15 02:05:59;;;;;;;8.17;7.33;;;;;;;11.52;100.00;100643.66;7727983;22;20214;-71
2024/03/15 02:09:20;;;;;;;7.93;6.77;;;;;;;11.56;100.00;100640.53;7733551;22;20301;-70
2024/03/15 02:12:41;;;;;;;7.77;7.13;;;;;;;11.43;100.00;100647.28;7730798;22;20218;-71
2024/03/15 02:16:02;;;;;;;8.07;7.17;;;;;;;11.45;100.00;100634.47;7730884;22;20219;-70
2024/03/15 02:19:22;;;;;;;9.30;7.00;;;;;;;11.39;100.00;100640.47;7734216;22;20211;-71
2024/03/15 02:22:44;;;;;;;7.13;6.53;;;;;;;11.56;100.00;100628.88;7729144;22;20487;-72
2024/03/15 02:26:05;;;;;;;7.20;6.47;;;;;;;11.54;100.00;100628.19;7732094;22;20210;-71
2024/03/15 02:29:26;;;;;;;9.87;8.33;;;;;;;11.58;100.00;100629.56;7737559;22;20210;-72
2024/03/15 02:32:47;;;;;;;9.70;7.03;;;;;;;11.52;100.00;100630.19;7722272;22;20210;-71
2024/03/15 02:36:10;;;;;;;6.97;6.37;;;;;;;11.36;100.00;100629.97;7723652;22;20207;-72
2024/03/15 02:39:30;;;;;;;10.60;6.70;;;;;;;11.31;100.00;100633.09;7722737;22;20703;-71
2024/03/15 02:42:52;;;;;;;7.53;6.83;;;;;;;11.29;100.00;100621.59;7726028;22;20210;-71
2024/03/15 02:46:12;;;;;;;7.93;6.80;;;;;;;11.12;100.00;100619.66;7717339;22;20229;-70
2024/03/15 02:49:34;;;;;;;7.03;6.40;;;;;;;11.15;100.00;100611.28;7733040;22;20210;-70
2024/03/15 02:56:37;;;;;;;8.37;7.47;;;;;;;11.17;100.00;100609.28;7703287;22;20590;-71
2024/03/15 02:59:58;;;;;;;9.73;8.23;;;;;;;11.16;100.00;100612.97;7712990;22;20217;-71
2024/03/15 03:03:19;;;;;;;7.17;6.57;;;;;;;11.07;100.00;100608.47;7749623;22;20215;-71
2024/03/15 03:06:42;;;;;;;7.53;6.83;;;;;;;11.05;100.00;100614.03;7728813;22;20214;-71
2024/03/15 03:10:03;;;;;;;10.83;7.43;;;;;;;11.09;100.00;100614.56;7735066;22;20958;-72
2024/03/15 03:13:24;;;;;;;8.27;7.47;;;;;;;11.13;100.00;100616.84;7754201;22;20297;-71
2024/03/15 03:16:45;;;;;;;8.47;7.27;;;;;;;10.97;100.00;100616.56;7721746;22;20214;-72
2024/03/15 03:20:18;;;;;;;7.97;7.17;;;;;;;10.94;100.00;100606.09;7727799;22;20218;-72
2024/03/15 03:23:39;;;;;;;8.17;7.37;;;;;;;10.92;100.00;100610.78;7739429;22;20257;-71
2024/03/15 03:27:00;;;;;;;11.97;7.47;;;;;;;10.90;100.00;100606.50;7727249;22;20265;-72
2024/03/15 03:30:21;;;;;;;8.30;7.47;;;;;;;10.97;100.00;100610.34;7719510;22;20206;-71
2024/03/15 03:33:42;;;;;;;7.73;7.03;;;;;;;10.91;100.00;100610.94;7730594;22;20219;-71
2024/03/15 03:37:03;;;;;;;8.20;7.30;;;;;;;10.96;100.00;100606.78;7723710;22;21695;-71
2024/03/15 03:40:24;;;;;;;8.20;7.50;;;;;;;10.93;100.00;100606.25;7726344;22;20405;-72
2024/03/15 03:43:45;;;;;;;8.33;7.53;;;;;;;10.89;100.00;100610.22;7733742;22;20214;-71
2024/03/15 03:47:06;;;;;;;9.10;8.20;;;;;;;10.98;100.00;100604.78;7723424;22;20210;-71
2024/03/15 03:50:28;;;;;;;8.80;8.00;;;;;;;10.87;100.00;100606.78;7729007;22;20883;-72
2024/03/15 03:53:49;;;;;;;11.03;8.90;;;;;;;11.04;100.00;100606.03;7756750;22;20211;-72
2024/03/15 03:57:19;;;;;;;8.03;7.23;;;;;;;10.88;100.00;100609.38;7729359;22;20210;-73
2024/03/15 04:00:40;;;;;;;8.77;7.97;;;;;;;10.86;100.00;100610.50;7726730;22;20240;-72
2024/03/15 04:04:01;;;;;;;10.40;8.17;;;;;;;10.75;100.00;100602.56;7735542;22;20214;-72
2024/03/15 04:07:28;;;;;;;10.77;8.13;;;;;;;10.75;100.00;100603.41;7729643;22;20210;-70
2024/03/15 04:10:49;;;;;;;10.30;9.30;;;;;;;10.78;100.00;100604.97;7752099;22;20553;-72
2024/03/15 04:14:11;;;;;;;9.90;8.00;;;;;;;10.80;100.00;100602.97;7734382;22;20214;-71
2024/03/15 04:17:32;;;;;;;9.17;8.27;;;;;;;10.94;100.00;100603.38;7749588;22;20211;-71
2024/03/15 04:20:53;;;;;;;8.93;8.03;;;;;;;10.83;100.00;100594.59;7731503;22;20214;-71
2024/03/15 04:24:16;;;;;;;9.27;8.47;;;;;;;10.96;100.00;100596.00;7734673;22;20553;-71
2024/03/15 04:27:37;;;;;;;11.63;8.37;;;;;;;10.97;100.00;100597.69;7732050;22;20549;-71
2024/03/15 04:30:58;;;;;;;9.90;8.17;;;;;;;11.06;100.00;100601.34;7728048;22;20248;-72
2024/03/15 04:34:20;;;;;;;9.83;8.47;;;;;;;11.02;100.00;100591.84;7702283;22;20541;-71
2024/03/15 04:37:41;;;;;;;9.10;8.07;;;;;;;10.93;100.00;100600.84;7728116;22;20210;-71
2024/03/15 04:41:09;;;;;;;9.90;7.47;;;;;;;10.97;100.00;100592.28;7728890;22;20301;-70
2024/03/15 04:44:33;;;;;;;9.80;8.47;;;;;;;10.95;100.00;100586.19;7742300;22;20250;-72
2024/03/15 04:47:56;;;;;;;9.17;7.97;;;;;;;11.09;100.00;100574.09;7747497;22;20222;-71
2024/03/15 04:51:17;;;;;;;8.80;7.93;;;;;;;10.90;100.00;100588.50;7736213;22;20222;-72
2024/03/15 04:54:40;;;;;;;9.27;8.10;;;;;;;10.86;100.00;100587.09;7731010;22;20491;-72
2024/03/15 04:58:02;;;;;;;9.77;8.73;;;;;;;10.86;100.00;100579.00;7726907;22;20214;-71
2024/03/15 05:01:23;;;;;;;12.93;7.90;;;;;;;10.87;100.00;100574.44;7735985;22;20452;-72
2024/03/15 05:04:44;;;;;;;8.57;7.67;;;;;;;10.90;100.00;100569.63;7715747;22;20203;-71
2024/03/15 05:08:06;;;;;;;10.40;9.23;;;;;;;10.72;100.00;100562.41;7715561;22;20215;-71
2024/03/15 05:11:27;;;;;;;10.43;9.37;;;;;;;10.62;100.00;100566.97;7726561;22;20214;-71
2024/03/15 05:14:48;;;;;;;10.07;8.97;;;;;;;10.63;100.00;100571.38;7696150;22;20671;-71
2024/03/15 05:18:09;;;;;;;9.20;8.40;;;;;;;10.60;100.00;100566.28;7731840;22;20210;-71
2024/03/15 05:21:30;;;;;;;10.53;8.93;;;;;;;10.59;100.00;100564.56;7727856;22;20282;-72
2024/03/15 05:24:51;;;;;;;10.87;9.77;;;;;;;10.49;100.00;100551.13;7731215;22;20214;-71
2024/03/15 05:28:14;;;;;;;12.83;8.77;;;;;;;10.52;100.00;100555.34;7733342;22;20223;-70
2024/03/15 05:31:35;;;;;;;10.13;8.30;;;;;;;10.58;100.00;100571.78;7721598;22;20206;-72
2024/03/15 05:34:55;;;;;;;11.47;9.37;;;;;;;10.72;100.00;100568.63;7724677;22;20218;-70
2024/03/15 05:38:21;;;;;;;9.57;8.43;;;;;;;10.85;100.00;100569.19;7729969;22;20440;-71
2024/03/15 05:41:42;;;;;;;12.10;10.23;;;;;;;10.90;100.00;100579.53;7732191;22;20207;-71
2024/03/15 05:45:04;;;;;;;10.77;9.60;;;;;;;10.83;100.00;100575.72;7758222;22;20309;-71
2024/03/15 05:48:27;;;;;;;10.07;9.07;;;;;;;10.99;100.00;100581.38;7756328;22;20210;-71
2024/03/15 05:51:47;;;;;;;13.07;9.57;;;;;;;10.94;100.00;100579.13;7712339;22;20219;-71
2024/03/15 05:55:09;;;;;;;10.37;9.33;;;;;;;11.15;100.00;100576.22;7715460;22;20255;-70
2024/03/15 05:58:30;;;;;;;9.87;8.87;;;;;;;11.20;100.00;100574.75;7721981;22;20207;-70
2024/03/15 06:01:51;;;;;;;10.47;8.97;;;;;;;11.21;100.00;100564.81;7722401;22;20211;-71
2024/03/15 06:05:12;;;;;;;11.00;9.90;;;;;;;11.24;100.00;100561.84;7723916;22;20213;-71
2024/03/15 06:08:33;;;;;;;8.93;8.10;;;;;;;11.30;100.00;100563.94;7756619;22;20723;-71
2024/03/15 06:11:54;;;;;;;12.87;8.77;;;;;;;11.33;100.00;100568.19;7728314;22;20301;-71
2024/03/15 06:15:15;;;;;;;10.80;9.83;;;;;;;11.33;100.00;100570.91;7722368;22;20301;-70
2024/03/15 06:18:37;;;;;;;11.10;9.07;;;;;;;11.42;100.00;100564.59;7727986;22;20206;-72
2024/03/15 06:21:58;;;;;;;11.37;9.33;;;;;;;11.43;100.00;100569.00;7719694;22;20436;-69
2024/03/15 06:25:19;;;;;;;9.37;8.47;;;;;;;11.57;100.00;100568.50;7728484;22;20206;-70
2024/03/15 06:28:43;;;;;;;13.37;9.67;;;;;;;11.57;100.00;100561.25;7736969;22;20214;-70
2024/03/15 06:32:05;;;;;;;9.57;8.63;;;;;;;11.57;100.00;100565.81;7724802;22;20485;-69
2024/03/15 06:35:28;;;;;;;11.00;9.57;;;;;;;11.66;100.00;100564.91;7742914;22;20218;-69
2024/03/15 06:38:57;;;;;;;10.03;8.83;;;;;;;11.65;100.00;100560.50;7722328;22;20632;-68
2024/03/15 06:42:23;;;;;;;9.70;8.70;;;;;;;11.61;100.00;100575.28;7686358;22;20234;-71
2024/03/15 06:45:57;;;;;;;11.47;10.33;;;;;;;11.62;100.00;100571.63;7703757;22;20206;-70
2024/03/15 06:49:24;;;;;;;12.17;8.80;;;;;;;11.64;100.00;100575.84;7754219;22;20255;-69
2024/03/15 06:52:45;;;;;;;10.30;9.40;;;;;;;11.64;100.00;100575.84;7726147;22;20794;-69
2024/03/15 06:56:05;;;;;;;9.67;8.00;;;;;;;11.75;100.00;100570.28;7723684;22;20519;-70
2024/03/15 06:59:26;;;;;;;10.60;9.47;;;;;;;11.83;100.00;100581.16;7728761;22;20218;-70
2024/03/15 07:02:49;;;;;;;9.57;8.53;;;;;;;11.83;100.00;100580.31;7713429;22;20600;-70
2024/03/15 07:06:10;;;;;;;10.97;9.70;;;;;;;11.82;100.00;100576.78;7718345;22;20214;-70
2024/03/15 07:09:31;;;;;;;9.60;8.70;;;;;;;11.88;100.00;100578.00;7728526;22;20210;-69
2024/03/15 07:12:52;;;;;;;10.93;9.40;;;;;;;11.95;100.00;100576.41;7720782;22;20210;-68
2024/03/15 07:16:13;;;;;;;13.70;10.10;;;;;;;12.11;100.00;100575.72;7722655;22;20222;-68
2024/03/15 07:19:34;;;;;;;8.90;8.17;;;;;;;12.03;100.00;100582.75;7754299;22;20219;-68
2024/03/15 07:22:55;;;;;;;10.17;8.70;;;;;;;12.00;100.00;100576.78;7723592;22;20214;-68
2024/03/15 07:26:16;;;;;;;11.10;9.43;;;;;;;12.11;100.00;100583.81;7718952;22;20214;-69
2024/03/15 07:29:36;;;;;;;10.87;9.63;;;;;;;12.22;100.00;100578.22;7731409;22;20214;-68
2024/03/15 07:32:57;;;;;;;11.33;9.37;;;;;;;12.26;100.00;100579.59;7736579;22;20214;-68
2024/03/15 07:36:21;;;;;;;11.03;8.60;;;;;;;12.01;100.00;100579.34;7728888;22;20293;-68
2024/03/15 07:39:42;;;;;;;10.77;9.37;;;;;;;12.04;100.00;100578.19;7732237;22;20215;-67
2024/03/15 07:43:03;;;;;;;11.80;9.90;;;;;;;12.00;100.00;100579.50;7726607;22;20218;-69
2024/03/15 07:46:24;;;;;;;9.67;8.70;;;;;;;12.16;100.00;100584.22;7724573;22;20215;-68
2024/03/15 07:49:45;;;;;;;10.40;9.37;;;;;;;12.30;100.00;100583.69;7733176;22;20211;-69
2024/03/15 07:53:06;;;;;;;9.00;8.00;;;;;;;12.13;100.00;100587.22;7728830;22;20210;-69
2024/03/15 07:56:27;;;;;;;12.23;8.53;;;;;;;12.36;100.00;100583.94;7727454;22;20246;-70
2024/03/15 07:59:48;;;;;;;15.90;9.93;;;;;;;12.42;100.00;100593.25;7728701;22;20214;-70
2024/03/15 08:03:10;;;;;;;22.93;9.90;;;;;;;12.41;100.00;100588.88;7745204;22;20225;-68
2024/03/15 08:06:33;;;;;;;9.53;8.63;;;;;;;12.60;100.00;100596.81;7724196;22;20582;-67
2024/03/15 08:09:54;;;;;;;10.77;8.50;;;;;;;12.70;100.00;100597.56;7749493;22;20214;-67
2024/03/15 08:13:15;;;;;;;10.10;8.80;;;;;;;12.89;100.00;100589.28;7728214;22;20214;-68
2024/03/15 08:16:36;;;;;;;11.27;8.87;;;;;;;13.16;100.00;100599.13;7735855;22;20222;-68
2024/03/15 08:19:56;;;;;;;12.07;9.17;;;;;;;13.07;100.00;100592.81;7728093;22;20214;-68
2024/03/15 08:23:17;;;;;;;12.13;9.87;;;;;;;13.14;100.00;100584.91;7711864;22;20214;-68
2024/03/15 08:26:39;;;;;;;11.57;8.73;;;;;;;13.37;100.00;100592.31;7703225;22;20211;-67
2024/03/15 08:30:01;;;;;;;13.37;8.77;;;;;;;13.40;100.00;100581.16;7715844;22;20219;-68
2024/03/15 08:33:22;;;;;;;11.73;8.80;;;;;;;13.51;100.00;100583.59;7709006;22;20249;-70
2024/03/15 08:36:43;;;;;;;11.87;7.87;;;;;;;13.53;100.00;100583.44;7705050;22;20596;-71
2024/03/15 08:40:09;;;;;;;9.90;7.63;;;;;;;13.86;100.00;100579.84;7692470;22;20234;-67
2024/03/15 08:43:31;;;;;;;8.17;7.33;;;;;;;13.89;100.00;100579.53;7701371;22;20554;-70
2024/03/15 08:46:52;;;;;;;7.53;6.83;;;;;;;14.05;100.00;100574.13;7705981;22;20576;-69
2024/03/15 08:50:14;;;;;;;10.33;7.67;;;;;;;14.50;100.00;100579.13;7706374;22;20414;-70
2024/03/15 08:53:36;;;;;;;8.80;6.20;;;;;;;14.64;100.00;100575.78;7732060;22;20404;-68
2024/03/15 08:56:57;;;;;;;14.97;6.67;;;;;;;14.75;100.00;100571.88;7722915;22;20214;-68
2024/03/15 09:00:19;;;;;;;9.03;7.20;;;;;;;14.52;100.00;100574.38;7681801;22;20210;-69
2024/03/15 09:03:40;;;;;;;8.83;6.60;;;;;;;14.13;100.00;100574.16;7728740;22;20214;-68
2024/03/15 09:07:01;;;;;;;10.20;7.50;;;;;;;14.01;100.00;100578.19;7723830;22;20222;-69
2024/03/15 09:10:23;;;;;;;9.30;7.43;;;;;;;13.82;100.00;100575.75;7710887;22;20211;-69
2024/03/15 09:13:44;;;;;;;7.73;7.03;;;;;;;14.15;100.00;100580.25;7736194;22;20482;-69
2024/03/15 09:17:12;;;;;;;13.67;7.53;;;;;;;14.19;100.00;100588.88;7726953;22;20215;-70
2024/03/15 09:20:35;;;;;;;8.60;6.27;;;;;;;14.20;100.00;100596.88;7708179;22;20702;-69
2024/03/15 09:23:56;;;;;;;7.40;6.57;;;;;;;14.27;100.00;100597.03;7737527;22;20303;-70
2024/03/15 09:27:17;;;;;;;7.60;6.97;;;;;;;13.98;100.00;100607.47;7727558;22;20207;-68
2024/03/15 09:30:46;;;;;;;7.70;6.90;;;;;;;13.97;100.00;100603.94;7718276;22;20214;-69
2024/03/15 09:34:10;;;;;;;10.73;7.63;;;;;;;13.84;100.00;100616.22;7736132;22;20679;-69
2024/03/15 09:37:36;;;;;;;7.83;7.13;;;;;;;13.71;100.00;100613.97;7729696;22;20210;-68
2024/03/15 09:40:57;;;;;;;7.77;7.07;;;;;;;13.38;100.00;100609.41;7729234;22;20741;-69
2024/03/15 09:44:19;;;;;;;9.53;7.17;;;;;;;13.20;100.00;100620.31;7725753;22;20218;-69
2024/03/15 09:47:40;;;;;;;7.43;6.73;;;;;;;13.17;100.00;100617.91;7723977;22;20920;-69
2024/03/15 09:51:03;;;;;;;8.73;6.43;;;;;;;13.18;100.00;100621.47;7745710;22;20305;-70
2024/03/15 09:54:24;;;;;;;9.37;7.13;;;;;;;12.95;100.00;100617.56;7758010;22;20580;-69
2024/03/15 09:57:46;;;;;;;7.30;6.13;;;;;;;12.84;100.00;100629.47;7728380;22;20569;-68
2024/03/15 10:01:06;;;;;;;9.93;7.40;;;;;;;12.86;100.00;100630.16;7722089;22;20210;-69
2024/03/15 10:04:27;;;;;;;8.00;7.00;;;;;;;12.74;100.00;100631.41;7735054;22;20245;-70
2024/03/15 10:07:48;;;;;;;7.30;6.60;;;;;;;12.59;100.00;100632.97;7725639;22;20210;-69
2024/03/15 10:11:09;;;;;;;7.73;6.93;;;;;;;12.62;100.00;100640.78;7721965;22;20313;-69
2024/03/15 10:14:30;;;;;;;8.13;7.33;;;;;;;12.67;100.00;100636.59;7730095;22;20596;-67
2024/03/15 10:17:51;;;;;;;6.93;6.33;;;;;;;12.69;100.00;100640.00;7713853;22;20218;-67
2024/03/15 10:21:13;;;;;;;6.70;6.07;;;;;;;12.77;100.00;100637.34;7727677;22;20647;-69
2024/03/15 10:24:33;;;;;;;8.73;6.77;;;;;;;12.91;100.00;100638.66;7756122;22;20526;-69
2024/03/15 10:27:54;;;;;;;9.13;6.03;;;;;;;12.98;100.00;100628.91;7728535;22;20206;-70
2024/03/15 10:31:16;;;;;;;7.97;7.17;;;;;;;12.84;100.00;100640.28;7722713;22;20211;-69
2024/03/15 10:34:37;;;;;;;9.70;6.97;;;;;;;13.02;100.00;100641.09;7729674;22;20206;-68
2024/03/15 10:37:58;;;;;;;7.10;6.40;;;;;;;13.18;100.00;100648.53;7724035;22;20875;-69
2024/03/15 10:41:19;;;;;;;9.03;6.20;;;;;;;13.11;100.00;100648.31;7724776;22;20236;-66
2024/03/15 10:44:42;;;;;;;9.37;6.70;;;;;;;13.20;100.00;100647.38;7728951;22;20206;-69
2024/03/15 10:48:03;;;;;;;7.10;6.07;;;;;;;13.18;100.00;100659.38;7708498;22;20215;-68
2024/03/15 10:51:24;;;;;;;8.43;7.53;;;;;;;13.20;100.00;100655.50;7737507;22;20426;-69
2024/03/15 10:54:45;;;;;;;6.27;5.67;;;;;;;13.39;100.00;100654.44;7726139;22;20556;-68
2024/03/15 10:58:05;;;;;;;7.57;5.67;;;;;;;13.53;100.00;100656.56;7726180;22;25421;-78
2024/03/15 11:01:26;;;;;;;9.93;7.37;;;;;;;14.02;100.00;100647.63;7724985;22;20207;-77
2024/03/15 11:04:49;;;;;;;8.33;6.80;;;;;;;14.22;100.00;100651.78;7731128;22;20286;-83
2024/03/15 11:08:10;;;;;;;8.63;7.03;;;;;;;14.50;100.00;100652.38;7728512;22;20537;-80
2024/03/15 11:11:31;;;;;;;6.57;6.07;;;;;;;14.22;100.00;100651.78;7723644;22;20214;-78
2024/03/15 11:14:52;;;;;;;8.67;6.63;;;;;;;14.40;100.00;100652.53;7730842;22;20272;-80
2024/03/15 11:18:13;;;;;;;6.03;5.57;;;;;;;14.07;100.00;100650.72;7685011;22;20218;-75
2024/03/15 11:21:34;;;;;;;8.70;7.30;;;;;;;14.16;100.00;100638.88;7719196;22;20214;-78
2024/03/15 11:24:55;;;;;;;7.27;6.57;;;;;;;14.09;100.00;100648.69;7727943;22;20214;-79
2024/03/15 11:28:16;;;;;;;8.00;7.20;;;;;;;13.99;100.00;100642.56;7728913;22;20214;-74
2024/03/15 11:31:36;;;;;;;11.23;7.80;;;;;;;14.14;100.00;100635.47;7714533;22;20222;-76
2024/03/15 11:34:58;;;;;;;7.73;6.97;;;;;;;13.98;100.00;100638.13;7728143;22;20218;-74
2024/03/15 11:38:19;;;;;;;10.30;7.90;;;;;;;13.91;100.00;100639.81;7728757;22;20218;-73
2024/03/15 11:41:39;;;;;;;7.73;7.03;;;;;;;13.92;100.00;100640.66;7727565;22;20214;-73
2024/03/15 11:45:01;;;;;;;7.23;6.60;;;;;;;13.94;100.00;100641.31;7731021;22;20214;-73
2024/03/15 11:48:23;;;;;;;7.97;7.17;;;;;;;13.98;100.00;100640.00;7707481;22;20210;-75
2024/03/15 11:51:45;;;;;;;7.97;7.13;;;;;;;14.14;100.00;100646.31;7713107;22;20293;-79
2024/03/15 11:55:06;;;;;;;7.83;7.13;;;;;;;14.37;100.00;100639.28;7729491;22;20222;-80
2024/03/15 11:58:27;;;;;;;7.23;6.63;;;;;;;14.49;100.00;100644.41;7755943;22;20215;-73
2024/03/15 12:01:48;;;;;;;9.30;7.10;;;;;;;15.68;100.00;100628.22;7726774;22;20210;-76
2024/03/15 12:05:08;;;;;;;7.33;6.73;;;;;;;14.93;100.00;100627.66;7723125;22;20210;-75
2024/03/15 12:08:29;;;;;;;7.27;6.67;;;;;;;14.94;100.00;100632.06;7727776;22;20641;-73
2024/03/15 12:11:53;;;;;;;7.40;6.60;;;;;;;14.52;100.00;100633.25;7721759;22;20293;-77
2024/03/15 12:15:27;;;;;;;9.90;6.87;;;;;;;14.62;100.00;100639.34;7706842;22;20210;-76
2024/03/15 12:18:48;;;;;;;6.50;6.00;;;;;;;14.84;100.00;100628.69;7715808;22;20556;-75
2024/03/15 12:22:09;;;;;;;7.80;7.10;;;;;;;15.76;100.00;100617.31;7727492;22;20854;-76
2024/03/15 12:25:30;;;;;;;8.57;6.83;;;;;;;15.70;100.00;100610.72;7701432;22;20210;-80
2024/03/15 12:28:52;;;;;;;7.50;6.80;;;;;;;15.63;100.00;100607.00;7687466;22;20206;-85
2024/03/15 12:32:13;;;;;;;8.40;7.60;;;;;;;15.50;100.00;100614.84;7699499;22;20210;-74
2024/03/15 12:35:34;;;;;;;6.40;5.90;;;;;;;14.66;100.00;100619.00;7719263;22;20214;-77
2024/03/15 12:38:56;;;;;;;7.23;6.47;;;;;;;14.62;100.00;100618.50;7727514;22;20222;-84
2024/03/15 12:42:16;;;;;;;6.93;6.20;;;;;;;14.52;100.00;100617.78;7708629;22;20288;-70
2024/03/15 12:45:38;;;;;;;7.77;6.07;;;;;;;14.46;100.00;100623.06;7742533;22;20609;-68
2024/03/15 12:48:59;;;;;;;6.63;6.10;;;;;;;14.37;100.00;100609.47;7729228;22;20218;-68
2024/03/15 12:52:20;;;;;;;6.53;5.93;;;;;;;14.43;100.00;100610.69;7728026;22;20298;-69
2024/03/15 12:55:41;;;;;;;9.07;6.30;;;;;;;14.51;100.00;100615.25;7722057;22;20214;-69
2024/03/15 12:59:02;;;;;;;5.97;5.47;;;;;;;14.54;100.00;100615.75;7719686;22;20222;-69
2024/03/15 13:02:23;;;;;;;5.93;5.43;;;;;;;14.58;100.00;100610.88;7746670;22;20218;-70
2024/03/15 13:05:44;;;;;;;7.07;6.43;;;;;;;14.67;100.00;100601.69;7722511;22;20210;-68
2024/03/15 13:09:05;;;;;;;8.97;6.57;;;;;;;14.59;100.00;100615.25;7732553;22;20612;-69
2024/03/15 13:12:26;;;;;;;7.23;6.47;;;;;;;14.61;100.00;100605.09;7721957;22;20206;-68
2024/03/15 13:15:47;;;;;;;6.80;6.10;;;;;;;14.46;100.00;100601.38;7718176;22;20210;-66
2024/03/15 13:19:09;;;;;;;6.30;5.70;;;;;;;14.49;100.00;100604.56;7730615;22;20242;-67
2024/03/15 13:22:30;;;;;;;8.60;5.87;;;;;;;14.46;100.00;100606.78;7722427;22;20214;-67
2024/03/15 13:25:53;;;;;;;5.70;5.20;;;;;;;14.32;100.00;100616.41;7720478;22;20234;-67
2024/03/15 13:29:14;;;;;;;5.63;5.13;;;;;;;14.27;100.00;100610.59;7732919;22;20214;-66
2024/03/15 13:32:38;;;;;;;7.90;5.10;;;;;;;14.29;100.00;100612.16;7715810;22;20215;-66
2024/03/15 13:35:59;;;;;;;6.60;5.00;;;;;;;14.42;100.00;100608.97;7724633;22;20227;-67
2024/03/15 13:39:27;;;;;;;5.07;4.57;;;;;;;14.88;100.00;100599.31;7710179;22;20741;-67
2024/03/15 13:42:50;;;;;;;5.27;4.77;;;;;;;15.62;100.00;100594.47;7728977;22;20206;-65
2024/03/15 13:46:12;;;;;;;7.90;7.20;;;;;;;15.60;100.00;100588.34;7716658;22;20288;-66
2024/03/15 13:49:33;;;;;;;4.73;4.40;;;;;;;15.40;100.00;100591.59;7733463;22;20211;-67
2024/03/15 13:52:54;;;;;;;5.60;4.87;;;;;;;15.45;100.00;100590.09;7725078;22;20214;-68
2024/03/15 13:56:16;;;;;;;6.70;4.83;;;;;;;15.78;100.00;100588.94;7723794;22;20215;-69
2024/03/15 13:59:37;;;;;;;8.13;4.93;;;;;;;16.15;100.00;100588.22;7735959;22;20223;-68
2024/03/15 14:03:01;;;;;;;6.40;4.13;;;;;;;17.36;100.00;100571.75;7722598;22;20214;-66
2024/03/15 14:06:22;;;;;;;8.43;4.30;;;;;;;18.51;100.00;100581.84;7747599;22;20207;-69
2024/03/15 14:09:45;;;;;;;4.53;3.70;;;;;;;16.94;100.00;100568.78;7729480;22;20210;-69
2024/03/15 14:13:06;;;;;;;4.83;4.33;;;;;;;18.32;100.00;100566.94;7729288;22;20226;-69
2024/03/15 14:16:27;;;;;;;4.20;3.80;;;;;;;17.64;100.00;100554.75;7699493;22;20207;-68
2024/03/15 14:19:47;;;;;;;4.87;4.47;;;;;;;16.30;100.00;100561.09;7720473;22;20309;-66
2024/03/15 14:23:08;;;;;;;4.37;3.97;;;;;;;16.81;100.00;100554.97;7732437;22;20661;-68
2024/03/15 14:26:29;;;;;;;4.90;4.03;;;;;;;18.44;100.00;100548.16;7725109;22;20496;-68
2024/03/15 14:29:50;;;;;;;6.47;4.90;;;;;;;16.27;100.00;100551.44;7737964;22;20209;-67
2024/03/15 14:33:11;;;;;;;5.03;4.53;;;;;;;16.19;100.00;100551.50;7729259;22;20247;-68
2024/03/15 14:36:31;;;;;;;5.40;4.23;;;;;;;15.93;100.00;100554.56;7711298;22;20222;-68
2024/03/15 14:39:52;;;;;;;9.03;4.67;;;;;;;16.83;100.00;100536.56;7754962;22;20464;-65
2024/03/15 14:43:13;;;;;;;4.73;4.00;;;;;;;15.80;100.00;100551.56;7729918;22;20514;-66
2024/03/15 14:46:35;;;;;;;5.63;4.20;;;;;;;15.54;100.00;100540.13;7725472;22;20211;-67
2024/03/15 14:49:56;;;;;;;7.37;5.13;;;;;;;15.32;100.00;100540.84;7731083;22;20206;-65
2024/03/15 14:53:20;;;;;;;4.83;4.43;;;;;;;15.33;100.00;100537.13;7734331;22;20584;-66
2024/03/15 14:56:41;;;;;;;8.53;4.50;;;;;;;15.39;100.00;100533.72;7732798;22;20550;-66
2024/03/15 15:00:02;;;;;;;4.93;4.43;;;;;;;15.36;100.00;100544.91;7732624;22;20218;-65
2024/03/15 15:03:23;;;;;;;4.97;4.47;;;;;;;15.00;100.00;100630.53;7731055;22;20210;-66
2024/03/15 15:06:44;;;;;;;4.23;2.53;;;;;;;13.39;100.00;100606.53;7726466;22;20230;-66
2024/03/15 15:10:08;;;;;;;10.97;8.57;;;;;;;13.20;100.00;100614.91;7730771;22;20222;-66
2024/03/15 15:13:32;;;;;;;7.97;6.20;;;;;;;13.23;100.00;100613.72;7746429;22;20317;-65
2024/03/15 15:16:54;;;;;;;3.93;1.73;;;;;;;12.68;100.00;100599.59;7705567;22;20293;-65
2024/03/15 15:20:18;;;;;;;2.30;1.23;;;;;;;12.46;100.00;100598.22;7725580;22;20482;-65
2024/03/15 15:23:39;;;;;;;1.87;1.40;;;;;;;12.65;100.00;100580.97;7728352;22;20240;-65
2024/03/15 15:27:00;;;;;;;5.87;2.20;;;;;;;13.02;100.00;100567.19;7724357;22;20281;-67